Time;durP1;ratioP1;P1;durP2;ratioP2;P2;SDS_P1;SDS_P2;PMS_P1;PMS_P2;Temp;Humidity;BMP_temperature;BMP_pressure;BME280_temperature;BME280_humidity;BME280_pressure;Samples;Min_cycle;Max_cycle;Signal;HPM_P1;HPM_P2
2023/10/14 00:02:21;;;;;;;8.38;3.08;;;;;;;;;;4920757;29;20459;-63
2023/10/14 00:04:52;;;;;;;8.90;3.07;;;;;;;;;;4927887;29;20440;-63
2023/10/14 00:07:24;;;;;;;3.65;2.90;;;;;;;;;;4919766;29;20447;-63
2023/10/14 00:09:52;;;;;;;6.73;2.97;;;;;;;;;;4903790;29;20441;-63
2023/10/14 00:12:20;;;;;;;6.85;3.10;;;;;;;;;;4929751;29;20474;-63
2023/10/14 00:14:53;;;;;;;5.10;3.08;;;;;;;;;;4922019;29;20443;-63
2023/10/14 00:17:20;;;;;;;5.18;3.33;;;;;;;;;;4921157;29;20445;-63
2023/10/14 00:19:54;;;;;;;7.65;3.00;;;;;;;;;;4921070;29;20532;-63
2023/10/14 00:22:22;;;;;;;6.78;3.15;;;;;;;;;;4927394;29;20439;-63
2023/10/14 00:24:52;;;;;;;7.47;3.13;;;;;;;;;;4919318;29;20455;-63
2023/10/14 00:27:21;;;;;;;8.63;3.40;;;;;;;;;;4926564;29;20902;-63
2023/10/14 00:29:50;;;;;;;10.07;3.75;;;;;;;;;;4919730;29;20508;-64
2023/10/14 00:32:17;;;;;;;6.63;2.90;;;;;;;;;;4908724;29;20526;-63
2023/10/14 00:34:45;;;;;;;9.75;3.53;;;;;;;;;;4923790;29;20455;-63
2023/10/14 00:37:12;;;;;;;7.60;3.33;;;;;;;;;;4926873;29;20442;-63
2023/10/14 00:39:39;;;;;;;5.30;3.00;;;;;;;;;;4917273;29;20436;-63
2023/10/14 00:42:08;;;;;;;8.23;3.63;;;;;;;;;;4919393;29;20437;-63
2023/10/14 00:44:39;;;;;;;6.60;3.50;;;;;;;;;;4919019;29;20447;-63
2023/10/14 00:47:14;;;;;;;8.60;3.00;;;;;;;;;;4922790;29;20576;-63
2023/10/14 00:49:42;;;;;;;10.73;3.47;;;;;;;;;;4925016;29;20441;-63
2023/10/14 00:52:15;;;;;;;6.47;3.17;;;;;;;;;;4914363;29;20451;-63
2023/10/14 00:59:47;;;;;;;8.60;4.05;;;;;;;;;;4923083;29;20439;-63
2023/10/14 01:02:15;;;;;;;7.53;3.20;;;;;;;;;;4922061;29;20435;-64
2023/10/14 01:04:48;;;;;;;6.30;3.47;;;;;;;;;;4914489;29;20496;-63
2023/10/14 01:07:21;;;;;;;7.55;3.50;;;;;;;;;;4925222;29;20936;-63
2023/10/14 01:09:52;;;;;;;8.50;3.30;;;;;;;;;;4919208;29;20449;-62
2023/10/14 01:15:10;;;;;;;10.83;3.17;;;;;;;;;;4918155;29;20500;-63
2023/10/14 01:17:42;;;;;;;7.25;3.40;;;;;;;;;;4921649;29;20439;-63
2023/10/14 01:22:51;;;;;;;12.02;3.55;;;;;;;;;;4917486;29;20443;-63
2023/10/14 01:25:19;;;;;;;8.07;3.42;;;;;;;;;;4919367;29;20910;-63
2023/10/14 01:27:49;;;;;;;7.03;3.83;;;;;;;;;;4900880;29;20550;-64
2023/10/14 01:30:26;;;;;;;12.88;3.78;;;;;;;;;;4926176;29;20433;-64
2023/10/14 01:32:57;;;;;;;7.25;3.28;;;;;;;;;;4915976;29;20437;-63
2023/10/14 01:37:57;;;;;;;6.35;3.40;;;;;;;;;;4924582;29;20439;-64
2023/10/14 01:43:05;;;;;;;5.97;3.42;;;;;;;;;;4919174;29;20452;-63
2023/10/14 01:45:40;;;;;;;4.97;3.67;;;;;;;;;;4916975;29;20452;-63
2023/10/14 01:50:39;;;;;;;7.18;3.67;;;;;;;;;;4920546;29;20443;-63
2023/10/14 01:53:10;;;;;;;7.80;4.00;;;;;;;;;;4921141;29;20439;-63
2023/10/14 01:55:42;;;;;;;9.40;4.07;;;;;;;;;;4916812;29;20433;-63
2023/10/14 01:58:12;;;;;;;10.05;3.85;;;;;;;;;;4924278;29;20658;-64
2023/10/14 02:00:46;;;;;;;9.32;3.78;;;;;;;;;;4922555;29;20439;-64
2023/10/14 02:03:15;;;;;;;4.03;2.95;;;;;;;;;;4921054;29;21396;-64
2023/10/14 02:05:42;;;;;;;14.80;3.85;;;;;;;;;;4922286;29;20542;-64
2023/10/14 02:08:21;;;;;;;7.30;3.43;;;;;;;;;;4918565;29;20518;-63
2023/10/14 02:10:50;;;;;;;7.22;3.10;;;;;;;;;;4917501;29;20519;-63
2023/10/14 02:13:23;;;;;;;6.10;3.35;;;;;;;;;;4923261;29;20467;-63
2023/10/14 02:15:53;;;;;;;9.55;3.30;;;;;;;;;;4918598;29;20439;-63
2023/10/14 02:18:23;;;;;;;4.80;2.83;;;;;;;;;;4919262;29;20444;-60
2023/10/14 02:20:57;;;;;;;6.53;3.28;;;;;;;;;;4920998;29;20439;-61
2023/10/14 02:23:43;;;;;;;7.57;2.95;;;;;;;;;;4906636;29;20523;-61
2023/10/14 02:26:22;;;;;;;7.50;3.03;;;;;;;;;;4916726;29;20482;-64
2023/10/14 02:28:52;;;;;;;7.68;3.30;;;;;;;;;;4917089;29;20446;-63
2023/10/14 02:31:29;;;;;;;8.88;2.88;;;;;;;;;;4924270;29;20456;-63
2023/10/14 02:33:59;;;;;;;4.70;2.50;;;;;;;;;;4915682;29;20439;-64
2023/10/14 02:36:29;;;;;;;7.70;2.67;;;;;;;;;;4924252;29;20449;-64
2023/10/14 02:38:57;;;;;;;5.85;2.65;;;;;;;;;;4911428;29;20494;-64
2023/10/14 02:41:32;;;;;;;5.22;2.42;;;;;;;;;;4900903;29;20439;-63
2023/10/14 02:46:42;;;;;;;9.30;2.90;;;;;;;;;;4922424;29;20446;-63
2023/10/14 02:49:14;;;;;;;6.70;2.33;;;;;;;;;;4923261;29;20470;-63
2023/10/14 02:51:42;;;;;;;8.57;3.20;;;;;;;;;;4910991;29;20452;-64
2023/10/14 02:54:33;;;;;;;8.73;2.60;;;;;;;;;;4927353;29;20443;-63
2023/10/14 02:57:12;;;;;;;6.03;2.70;;;;;;;;;;4920431;29;20449;-63
2023/10/14 02:59:48;;;;;;;8.18;2.95;;;;;;;;;;4927770;29;20925;-63
2023/10/14 03:02:18;;;;;;;5.13;2.65;;;;;;;;;;4923107;29;20452;-64
2023/10/14 03:07:27;;;;;;;7.72;2.67;;;;;;;;;;4927413;29;20498;-63
2023/10/14 03:12:40;;;;;;;7.53;2.88;;;;;;;;;;4920886;29;20470;-63
2023/10/14 03:15:21;;;;;;;7.90;2.47;;;;;;;;;;4930028;29;20447;-63
2023/10/14 03:17:56;;;;;;;6.10;2.50;;;;;;;;;;4925082;29;20796;-62
2023/10/14 03:22:57;;;;;;;4.28;2.42;;;;;;;;;;4923989;29;20538;-63
2023/10/14 03:25:25;;;;;;;7.45;3.10;;;;;;;;;;4926870;29;20440;-64
2023/10/14 03:27:59;;;;;;;5.90;2.72;;;;;;;;;;4925186;29;20441;-63
2023/10/14 03:30:37;;;;;;;6.40;2.33;;;;;;;;;;4927075;29;20435;-62
2023/10/14 03:33:10;;;;;;;5.32;2.20;;;;;;;;;;4927243;29;20518;-63
2023/10/14 03:35:37;;;;;;;4.93;1.90;;;;;;;;;;4925107;29;20440;-63
2023/10/14 03:38:14;;;;;;;2.72;1.55;;;;;;;;;;4923372;29;20459;-64
2023/10/14 03:43:20;;;;;;;5.47;1.60;;;;;;;;;;4920608;29;20568;-63
2023/10/14 03:45:54;;;;;;;2.47;1.60;;;;;;;;;;4924146;29;20453;-63
2023/10/14 03:48:21;;;;;;;5.28;1.85;;;;;;;;;;4920073;29;20939;-63
2023/10/14 03:50:48;;;;;;;6.20;1.73;;;;;;;;;;4913216;29;20437;-63
2023/10/14 03:53:17;;;;;;;3.17;1.20;;;;;;;;;;4926336;29;20803;-63
2023/10/14 03:55:44;;;;;;;7.43;1.70;;;;;;;;;;4917406;29;20902;-63
2023/10/14 03:58:12;;;;;;;6.07;1.40;;;;;;;;;;4926641;29;20540;-63
2023/10/14 04:00:39;;;;;;;4.53;1.58;;;;;;;;;;4920772;29;20536;-62
2023/10/14 04:03:11;;;;;;;5.00;3.30;;;;;;;;;;4924597;29;20435;-63
2023/10/14 04:05:45;;;;;;;4.45;1.70;;;;;;;;;;4922037;29;20996;-61
2023/10/14 04:08:13;;;;;;;4.22;1.85;;;;;;;;;;4920361;29;20444;-61
2023/10/14 04:10:46;;;;;;;22.87;21.17;;;;;;;;;;4926790;29;20446;-61
2023/10/14 04:13:14;;;;;;;46.08;42.97;;;;;;;;;;4922927;29;20530;-62
2023/10/14 04:15:50;;;;;;;5.25;2.72;;;;;;;;;;4922107;29;21083;-61
2023/10/14 04:18:24;;;;;;;6.28;2.20;;;;;;;;;;4924899;29;20440;-61
2023/10/14 04:24:03;;;;;;;60.40;55.80;;;;;;;;;;4926068;29;20441;-61
2023/10/14 04:26:34;;;;;;;96.93;89.50;;;;;;;;;;4929006;29;20530;-61
2023/10/14 04:29:34;;;;;;;142.63;132.18;;;;;;;;;;4924598;29;20578;-61
2023/10/14 04:32:13;;;;;;;631.60;576.65;;;;;;;;;;4927955;29;20534;-62
2023/10/14 04:34:45;;;;;;;11.30;10.30;;;;;;;;;;4918872;29;20480;-63
2023/10/14 04:37:20;;;;;;;6.45;2.00;;;;;;;;;;4921509;29;20445;-62
2023/10/14 04:39:58;;;;;;;9.97;6.63;;;;;;;;;;4926753;29;20528;-63
2023/10/14 04:42:36;;;;;;;6.90;4.55;;;;;;;;;;4921190;29;20491;-62
2023/10/14 04:45:07;;;;;;;7.75;4.45;;;;;;;;;;4923898;29;20496;-62
2023/10/14 04:47:37;;;;;;;105.72;98.38;;;;;;;;;;4927450;29;20446;-62
2023/10/14 04:50:21;;;;;;;131.90;122.18;;;;;;;;;;4923662;29;20442;-62
2023/10/14 04:52:48;;;;;;;25.58;23.98;;;;;;;;;;4919322;29;20498;-61
2023/10/14 04:58:00;;;;;;;122.28;113.65;;;;;;;;;;4928622;29;21137;-63
2023/10/14 05:00:41;;;;;;;54.78;51.30;;;;;;;;;;4927103;29;20439;-63
2023/10/14 05:03:11;;;;;;;319.33;291.50;;;;;;;;;;4918473;29;20439;-62
2023/10/14 05:05:41;;;;;;;364.70;332.67;;;;;;;;;;4925388;29;20502;-62
2023/10/14 05:08:12;;;;;;;32.53;30.17;;;;;;;;;;4924183;29;20527;-62
2023/10/14 05:10:41;;;;;;;331.95;304.17;;;;;;;;;;4922479;29;20479;-62
2023/10/14 05:13:13;;;;;;;136.75;127.05;;;;;;;;;;4920235;29;20448;-62
2023/10/14 05:15:41;;;;;;;388.05;353.85;;;;;;;;;;4920287;29;20448;-62
2023/10/14 05:18:16;;;;;;;211.52;195.57;;;;;;;;;;4925131;29;21139;-62
2023/10/14 05:23:30;;;;;;;276.05;253.98;;;;;;;;;;4916565;29;20447;-63
2023/10/14 05:25:59;;;;;;;262.15;242.10;;;;;;;;;;4924611;29;20472;-62
2023/10/14 05:28:35;;;;;;;690.88;631.53;;;;;;;;;;4924819;29;20439;-62
2023/10/14 05:31:10;;;;;;;721.58;659.53;;;;;;;;;;4923493;29;20500;-62
2023/10/14 05:33:37;;;;;;;792.80;724.92;;;;;;;;;;4918218;29;20446;-62
2023/10/14 05:36:07;;;;;;;391.23;356.88;;;;;;;;;;4907266;29;21161;-62
2023/10/14 05:38:35;;;;;;;398.10;363.08;;;;;;;;;;4918849;29;20930;-62
2023/10/14 05:41:06;;;;;;;392.88;357.98;;;;;;;;;;4920251;29;20544;-63
2023/10/14 05:43:36;;;;;;;752.90;686.17;;;;;;;;;;4924988;29;20435;-62
2023/10/14 05:46:12;;;;;;;889.25;768.10;;;;;;;;;;4924710;29;20447;-62
2023/10/14 05:48:39;;;;;;;828.77;745.60;;;;;;;;;;4925370;29;20470;-62
2023/10/14 05:51:10;;;;;;;811.60;727.65;;;;;;;;;;4925457;29;20447;-62
2023/10/14 05:53:39;;;;;;;711.13;648.80;;;;;;;;;;4920896;29;20443;-62
2023/10/14 05:56:15;;;;;;;744.80;679.28;;;;;;;;;;4928250;29;20871;-63
2023/10/14 05:58:42;;;;;;;709.97;646.72;;;;;;;;;;4915005;29;20475;-65
2023/10/14 06:01:10;;;;;;;264.67;243.27;;;;;;;;;;4922125;29;20519;-66
2023/10/14 06:03:41;;;;;;;165.48;153.60;;;;;;;;;;4926869;29;20791;-66
2023/10/14 06:06:14;;;;;;;115.30;107.93;;;;;;;;;;4916254;29;20532;-67
2023/10/14 06:08:46;;;;;;;609.15;554.13;;;;;;;;;;4923135;29;20519;-68
2023/10/14 06:11:14;;;;;;;571.10;517.95;;;;;;;;;;4917354;29;20472;-67
2023/10/14 06:13:41;;;;;;;503.23;456.07;;;;;;;;;;4921877;29;20451;-67
2023/10/14 06:16:09;;;;;;;340.03;310.20;;;;;;;;;;4919753;29;20447;-67
2023/10/14 06:18:40;;;;;;;505.65;457.90;;;;;;;;;;4915783;29;20442;-68
2023/10/14 06:21:10;;;;;;;494.98;448.67;;;;;;;;;;4926501;29;21038;-68
2023/10/14 06:23:39;;;;;;;513.55;465.70;;;;;;;;;;4915935;29;21313;-68
2023/10/14 06:26:07;;;;;;;567.70;507.10;;;;;;;;;;4914248;29;20435;-68
2023/10/14 06:28:34;;;;;;;560.28;505.25;;;;;;;;;;4930428;29;20439;-68
2023/10/14 06:31:04;;;;;;;562.33;497.55;;;;;;;;;;4924838;29;20521;-68
2023/10/14 06:33:32;;;;;;;687.23;513.67;;;;;;;;;;4923814;29;20956;-69
2023/10/14 06:36:03;;;;;;;564.17;499.13;;;;;;;;;;4923695;29;20482;-68
2023/10/14 06:38:33;;;;;;;564.90;502.30;;;;;;;;;;4924887;29;20455;-68
2023/10/14 06:41:01;;;;;;;605.17;511.50;;;;;;;;;;4924634;29;20534;-68
2023/10/14 06:43:33;;;;;;;646.13;525.03;;;;;;;;;;4911109;29;20443;-68
2023/10/14 06:46:04;;;;;;;557.88;504.27;;;;;;;;;;4929199;29;20482;-67
2023/10/14 06:48:38;;;;;;;552.25;499.45;;;;;;;;;;4920718;29;20526;-66
2023/10/14 06:51:06;;;;;;;547.03;492.23;;;;;;;;;;4920575;29;20978;-66
2023/10/14 06:53:34;;;;;;;508.65;461.42;;;;;;;;;;4926620;29;20983;-65
2023/10/14 06:56:01;;;;;;;526.08;476.15;;;;;;;;;;4930147;29;20514;-65
2023/10/14 06:58:29;;;;;;;539.92;489.88;;;;;;;;;;4928923;29;20498;-65
2023/10/14 07:00:58;;;;;;;446.15;405.30;;;;;;;;;;4924790;29;20502;-65
2023/10/14 07:03:28;;;;;;;711.67;591.78;;;;;;;;;;4922722;29;20830;-65
2023/10/14 07:05:58;;;;;;;812.70;618.40;;;;;;;;;;4922156;29;20432;-64
2023/10/14 07:08:29;;;;;;;909.47;625.25;;;;;;;;;;4927378;29;20464;-64
2023/10/14 07:10:57;;;;;;;773.35;634.35;;;;;;;;;;4903267;29;20449;-64
2023/10/14 07:13:24;;;;;;;851.70;656.55;;;;;;;;;;4919577;29;20514;-64
2023/10/14 07:15:53;;;;;;;810.00;666.00;;;;;;;;;;4903591;29;20433;-64
2023/10/14 07:18:24;;;;;;;819.83;702.03;;;;;;;;;;4924845;29;20574;-64
2023/10/14 07:20:57;;;;;;;765.30;691.90;;;;;;;;;;4918294;29;20532;-63
2023/10/14 07:23:24;;;;;;;762.45;688.28;;;;;;;;;;4923403;29;20437;-64
2023/10/14 07:25:52;;;;;;;712.95;648.03;;;;;;;;;;4923151;29;20533;-64
2023/10/14 07:28:19;;;;;;;695.15;632.80;;;;;;;;;;4926113;29;20491;-63
2023/10/14 07:30:46;;;;;;;600.55;545.92;;;;;;;;;;4921903;29;20443;-62
2023/10/14 07:33:14;;;;;;;448.45;406.48;;;;;;;;;;4929620;29;20474;-63
2023/10/14 07:35:41;;;;;;;821.47;641.30;;;;;;;;;;4920435;29;20599;-63
2023/10/14 07:38:10;;;;;;;703.78;627.50;;;;;;;;;;4923922;29;20496;-63
2023/10/14 07:40:38;;;;;;;714.63;636.97;;;;;;;;;;4901687;29;20493;-63
2023/10/14 07:43:07;;;;;;;711.55;636.58;;;;;;;;;;4923106;29;20936;-64
2023/10/14 07:45:36;;;;;;;709.08;635.55;;;;;;;;;;4923099;29;20437;-63
2023/10/14 07:48:09;;;;;;;711.87;641.00;;;;;;;;;;4923132;29;20560;-64
2023/10/14 07:50:37;;;;;;;808.95;694.10;;;;;;;;;;4922621;29;20831;-64
2023/10/14 07:53:08;;;;;;;636.77;579.50;;;;;;;;;;4909935;29;20444;-64
2023/10/14 07:55:38;;;;;;;774.97;698.38;;;;;;;;;;4922605;29;20748;-63
2023/10/14 07:58:08;;;;;;;778.77;702.13;;;;;;;;;;4930495;29;20510;-63
2023/10/14 08:00:39;;;;;;;783.33;705.60;;;;;;;;;;4919486;29;20908;-63
2023/10/14 08:03:14;;;;;;;778.45;704.35;;;;;;;;;;4924536;29;20977;-62
2023/10/14 08:05:43;;;;;;;761.33;687.85;;;;;;;;;;4921485;29;20441;-63
2023/10/14 08:08:11;;;;;;;809.47;722.55;;;;;;;;;;4907685;29;20539;-62
2023/10/14 08:10:47;;;;;;;776.67;708.17;;;;;;;;;;4924251;29;20439;-63
2023/10/14 08:13:14;;;;;;;832.95;741.22;;;;;;;;;;4915377;29;20493;-63
2023/10/14 08:15:41;;;;;;;717.88;655.97;;;;;;;;;;4925780;29;20439;-62
2023/10/14 08:18:09;;;;;;;507.80;459.63;;;;;;;;;;4923762;29;20902;-63
2023/10/14 08:20:37;;;;;;;605.03;550.33;;;;;;;;;;4922249;29;21063;-63
2023/10/14 08:23:10;;;;;;;500.42;453.30;;;;;;;;;;4924738;29;20524;-62
2023/10/14 08:25:38;;;;;;;451.13;408.63;;;;;;;;;;4919795;29;20437;-62
2023/10/14 08:28:06;;;;;;;341.10;311.83;;;;;;;;;;4924460;29;20446;-62
2023/10/14 08:30:36;;;;;;;385.60;351.20;;;;;;;;;;4919295;29;20444;-63
2023/10/14 08:33:04;;;;;;;4.00;1.30;;;;;;;;;;4919438;29;20510;-62
2023/10/14 08:35:32;;;;;;;4.03;1.27;;;;;;;;;;4926077;29;20445;-62
2023/10/14 08:37:59;;;;;;;6.38;5.75;;;;;;;;;;4914631;29;20900;-62
2023/10/14 08:40:29;;;;;;;3.70;1.00;;;;;;;;;;4921493;29;20539;-63
2023/10/14 08:43:06;;;;;;;2.80;1.10;;;;;;;;;;4920873;29;20464;-62
2023/10/14 08:45:40;;;;;;;69.80;64.90;;;;;;;;;;4916961;29;20443;-63
2023/10/14 08:48:11;;;;;;;117.97;108.43;;;;;;;;;;4911429;29;20443;-62
2023/10/14 08:50:40;;;;;;;142.10;131.68;;;;;;;;;;4927564;29;20443;-62
2023/10/14 08:53:08;;;;;;;94.55;88.22;;;;;;;;;;4923656;29;20497;-62
2023/10/14 08:55:35;;;;;;;8.35;7.55;;;;;;;;;;4896450;29;20527;-61
2023/10/14 08:58:05;;;;;;;147.02;136.55;;;;;;;;;;4913182;29;20566;-62
2023/10/14 09:00:36;;;;;;;329.40;302.55;;;;;;;;;;4926588;29;20435;-61
2023/10/14 09:03:07;;;;;;;249.85;230.80;;;;;;;;;;4922890;29;20445;-62
2023/10/14 09:05:38;;;;;;;148.23;137.85;;;;;;;;;;4918312;29;20435;-61
2023/10/14 09:08:11;;;;;;;158.43;147.07;;;;;;;;;;4912418;29;20479;-61
2023/10/14 09:10:39;;;;;;;139.68;129.57;;;;;;;;;;4910553;29;20838;-62
2023/10/14 09:13:08;;;;;;;175.45;162.55;;;;;;;;;;4921972;29;20447;-61
2023/10/14 09:15:39;;;;;;;150.18;139.48;;;;;;;;;;4912276;29;21172;-61
2023/10/14 09:18:16;;;;;;;186.20;172.30;;;;;;;;;;4909625;29;20445;-61
2023/10/14 09:20:44;;;;;;;320.88;294.42;;;;;;;;;;4921562;29;20447;-61
2023/10/14 09:23:18;;;;;;;237.98;219.80;;;;;;;;;;4919278;29;20461;-61
2023/10/14 09:25:58;;;;;;;190.13;176.02;;;;;;;;;;4919659;29;20447;-61
2023/10/14 09:28:25;;;;;;;112.33;104.50;;;;;;;;;;4920741;29;20457;-61
2023/10/14 09:30:53;;;;;;;118.68;110.65;;;;;;;;;;4926513;29;20451;-60
2023/10/14 09:33:27;;;;;;;174.40;161.75;;;;;;;;;;4928641;29;20435;-61
2023/10/14 09:35:58;;;;;;;87.88;81.90;;;;;;;;;;4922127;29;20447;-61
2023/10/14 09:38:27;;;;;;;54.40;50.78;;;;;;;;;;4910390;29;20439;-61
2023/10/14 09:40:57;;;;;;;33.58;31.42;;;;;;;;;;4926076;29;21241;-60
2023/10/14 09:43:27;;;;;;;647.60;592.10;;;;;;;;;;4903648;29;20557;-60
2023/10/14 09:45:56;;;;;;;588.50;536.70;;;;;;;;;;4917798;29;20447;-61
2023/10/14 09:48:27;;;;;;;54.17;50.50;;;;;;;;;;4917209;29;20490;-61
2023/10/14 09:51:00;;;;;;;19.60;18.20;;;;;;;;;;4923780;29;20439;-61
2023/10/14 09:53:28;;;;;;;3.10;2.72;;;;;;;;;;4915284;29;20542;-61
2023/10/14 09:55:56;;;;;;;6.90;6.50;;;;;;;;;;4921414;29;20486;-61
2023/10/14 09:58:26;;;;;;;22.47;20.87;;;;;;;;;;4920121;29;20446;-61
2023/10/14 10:00:54;;;;;;;3.40;1.37;;;;;;;;;;4918842;29;20534;-61
2023/10/14 10:03:22;;;;;;;6.43;5.63;;;;;;;;;;4917058;29;20546;-61
2023/10/14 10:05:59;;;;;;;3.60;1.83;;;;;;;;;;4919754;29;20435;-61
2023/10/14 10:08:45;;;;;;;11.65;10.77;;;;;;;;;;4926346;29;20499;-61
2023/10/14 10:11:13;;;;;;;38.00;35.47;;;;;;;;;;4919314;29;20451;-60
2023/10/14 10:13:43;;;;;;;232.75;215.50;;;;;;;;;;4916719;29;20450;-60
2023/10/14 10:16:13;;;;;;;519.20;474.83;;;;;;;;;;4922453;29;20468;-61
2023/10/14 10:18:56;;;;;;;491.33;447.60;;;;;;;;;;4918002;29;20936;-61
2023/10/14 10:21:34;;;;;;;254.20;235.10;;;;;;;;;;4919741;29;20443;-60
2023/10/14 10:24:23;;;;;;;39.05;36.38;;;;;;;;;;4920640;29;20530;-61
2023/10/14 10:27:08;;;;;;;29.65;27.48;;;;;;;;;;4924440;29;20473;-61
2023/10/14 10:29:45;;;;;;;8.63;8.02;;;;;;;;;;4915251;29;20445;-60
2023/10/14 10:32:19;;;;;;;8.32;7.53;;;;;;;;;;4920840;29;20454;-61
2023/10/14 10:35:06;;;;;;;25.77;24.08;;;;;;;;;;4924054;29;20447;-61
2023/10/14 10:37:40;;;;;;;43.20;40.35;;;;;;;;;;4902948;29;20444;-60
2023/10/14 10:40:11;;;;;;;72.47;67.68;;;;;;;;;;4924702;29;20515;-61
2023/10/14 10:42:41;;;;;;;67.97;62.83;;;;;;;;;;4920099;29;20437;-60
2023/10/14 10:45:20;;;;;;;60.00;56.13;;;;;;;;;;4915460;29;20763;-60
2023/10/14 10:47:55;;;;;;;45.13;42.30;;;;;;;;;;4919302;29;20466;-61
2023/10/14 10:50:23;;;;;;;87.57;81.73;;;;;;;;;;4921425;29;20435;-60
2023/10/14 10:52:54;;;;;;;113.55;105.70;;;;;;;;;;4927116;29;21031;-60
2023/10/14 10:55:24;;;;;;;392.02;359.55;;;;;;;;;;4924448;29;20555;-61
2023/10/14 10:57:57;;;;;;;494.80;451.80;;;;;;;;;;4921502;29;20439;-61
2023/10/14 11:00:25;;;;;;;628.88;573.90;;;;;;;;;;4917425;29;20485;-61
2023/10/14 11:02:55;;;;;;;393.60;360.02;;;;;;;;;;4925854;29;20471;-61
2023/10/14 11:05:24;;;;;;;404.60;369.58;;;;;;;;;;4912902;29;20797;-61
2023/10/14 11:07:52;;;;;;;593.55;540.80;;;;;;;;;;4920931;29;20814;-61
2023/10/14 11:10:30;;;;;;;624.80;570.05;;;;;;;;;;4924924;29;20480;-61
2023/10/14 11:13:00;;;;;;;377.88;346.00;;;;;;;;;;4921452;29;20574;-60
2023/10/14 11:15:31;;;;;;;355.83;326.65;;;;;;;;;;4927414;29;20439;-60
2023/10/14 11:18:00;;;;;;;336.73;309.37;;;;;;;;;;4922929;29;20481;-60
2023/10/14 11:20:47;;;;;;;370.77;339.60;;;;;;;;;;4907174;29;20465;-60
2023/10/14 11:23:17;;;;;;;466.27;424.35;;;;;;;;;;4924989;29;20439;-60
2023/10/14 11:25:53;;;;;;;227.98;210.95;;;;;;;;;;4927348;29;20479;-59
2023/10/14 11:28:26;;;;;;;250.73;231.38;;;;;;;;;;4922151;29;20443;-59
2023/10/14 11:30:55;;;;;;;303.17;278.55;;;;;;;;;;4926808;29;20759;-59
2023/10/14 11:33:24;;;;;;;203.73;188.45;;;;;;;;;;4923385;29;20439;-60
2023/10/14 11:35:56;;;;;;;891.10;815.40;;;;;;;;;;4921994;29;20459;-61
2023/10/14 11:38:25;;;;;;;368.38;337.23;;;;;;;;;;4924661;29;20546;-59
2023/10/14 11:40:53;;;;;;;257.20;237.63;;;;;;;;;;4923560;29;20452;-59
2023/10/14 11:43:21;;;;;;;246.93;228.25;;;;;;;;;;4920515;29;20447;-59
2023/10/14 11:45:48;;;;;;;355.65;326.00;;;;;;;;;;4929757;29;20437;-59
2023/10/14 11:48:24;;;;;;;206.50;191.30;;;;;;;;;;4910026;29;20528;-59
2023/10/14 11:50:52;;;;;;;294.48;271.20;;;;;;;;;;4911003;29;20457;-60
2023/10/14 11:53:27;;;;;;;547.58;497.90;;;;;;;;;;4924308;29;20475;-60
2023/10/14 11:55:58;;;;;;;361.77;331.20;;;;;;;;;;4903267;29;20463;-60
2023/10/14 11:58:29;;;;;;;146.77;136.30;;;;;;;;;;4914233;29;20841;-60
2023/10/14 12:00:57;;;;;;;233.50;215.45;;;;;;;;;;4926539;29;20443;-60
2023/10/14 12:03:25;;;;;;;429.48;390.75;;;;;;;;;;4920562;29;20441;-59
2023/10/14 12:05:57;;;;;;;440.50;400.25;;;;;;;;;;4921543;29;20530;-60
2023/10/14 12:08:28;;;;;;;392.65;358.05;;;;;;;;;;4928838;29;20436;-60
2023/10/14 12:10:59;;;;;;;354.10;324.13;;;;;;;;;;4924500;29;20439;-59
2023/10/14 12:13:26;;;;;;;393.88;359.45;;;;;;;;;;4926871;29;20554;-59
2023/10/14 12:16:13;;;;;;;478.00;433.30;;;;;;;;;;4922608;29;20464;-59
2023/10/14 12:18:42;;;;;;;347.13;317.67;;;;;;;;;;4913610;29;20501;-60
2023/10/14 12:21:09;;;;;;;293.25;269.60;;;;;;;;;;4928864;29;20476;-60
2023/10/14 12:23:37;;;;;;;284.83;262.08;;;;;;;;;;4921261;29;20483;-60
2023/10/14 12:26:06;;;;;;;225.68;208.50;;;;;;;;;;4921764;29;20972;-60
2023/10/14 12:28:33;;;;;;;746.20;681.03;;;;;;;;;;4915878;29;20446;-60
2023/10/14 12:31:03;;;;;;;442.83;403.27;;;;;;;;;;4906248;29;20900;-60
2023/10/14 12:33:41;;;;;;;486.60;444.27;;;;;;;;;;4919180;29;20437;-60
2023/10/14 12:36:10;;;;;;;327.33;301.23;;;;;;;;;;4920871;29;20437;-60
2023/10/14 12:38:43;;;;;;;390.48;357.55;;;;;;;;;;4929734;29;20435;-60
2023/10/14 12:41:14;;;;;;;275.13;253.90;;;;;;;;;;4927398;29;21230;-60
2023/10/14 12:43:41;;;;;;;98.22;91.53;;;;;;;;;;4922167;29;20527;-60
2023/10/14 12:46:45;;;;;;;126.88;118.05;;;;;;;;;;4917217;29;20999;-59
2023/10/14 12:49:03;;;;;;;106.07;99.05;;;;;;;;;;4915572;29;21845;-59
2023/10/14 12:51:31;;;;;;;158.80;147.20;;;;;;;;;;4918106;29;20530;-59
2023/10/14 12:53:59;;;;;;;710.03;650.40;;;;;;;;;;4902466;29;20446;-60
2023/10/14 12:56:26;;;;;;;392.30;359.38;;;;;;;;;;4920859;29;20539;-60
2023/10/14 12:58:57;;;;;;;503.08;458.38;;;;;;;;;;4903593;29;20453;-61
2023/10/14 13:01:25;;;;;;;601.20;550.08;;;;;;;;;;4916849;29;20450;-59
2023/10/14 13:03:57;;;;;;;315.42;290.77;;;;;;;;;;4901245;29;20520;-60
2023/10/14 13:06:26;;;;;;;341.08;313.73;;;;;;;;;;4920000;29;20441;-59
2023/10/14 13:09:01;;;;;;;397.27;363.77;;;;;;;;;;4918085;29;20447;-59
2023/10/14 13:11:29;;;;;;;404.15;369.92;;;;;;;;;;4924611;29;20445;-60
2023/10/14 13:13:57;;;;;;;461.13;420.37;;;;;;;;;;4925203;29;20534;-59
2023/10/14 13:16:25;;;;;;;249.82;231.05;;;;;;;;;;4926445;29;20854;-59
2023/10/14 13:18:59;;;;;;;323.40;297.58;;;;;;;;;;4911780;29;20442;-59
2023/10/14 13:21:29;;;;;;;276.73;255.60;;;;;;;;;;4916393;29;20519;-59
2023/10/14 13:23:57;;;;;;;312.33;287.53;;;;;;;;;;4901987;29;20762;-59
2023/10/14 13:26:24;;;;;;;237.05;219.52;;;;;;;;;;4920885;29;20449;-60
2023/10/14 13:28:51;;;;;;;185.57;172.18;;;;;;;;;;4925413;29;20439;-59
2023/10/14 13:31:20;;;;;;;386.75;352.90;;;;;;;;;;4927934;29;20440;-59
2023/10/14 13:33:47;;;;;;;331.77;304.52;;;;;;;;;;4924335;29;20442;-60
2023/10/14 13:36:15;;;;;;;329.02;302.15;;;;;;;;;;4916079;29;20939;-59
2023/10/14 13:38:42;;;;;;;262.35;242.30;;;;;;;;;;4923169;29;20531;-59
2023/10/14 13:41:14;;;;;;;355.20;325.10;;;;;;;;;;4919622;29;20448;-59
2023/10/14 13:43:45;;;;;;;316.65;290.65;;;;;;;;;;4922170;29;20802;-59
2023/10/14 13:46:12;;;;;;;156.93;145.83;;;;;;;;;;4896746;29;20440;-60
2023/10/14 13:48:40;;;;;;;211.65;195.80;;;;;;;;;;4921486;29;20443;-60
2023/10/14 13:51:07;;;;;;;357.17;326.83;;;;;;;;;;4917260;29;20547;-60
2023/10/14 13:53:34;;;;;;;280.42;258.75;;;;;;;;;;4917988;29;20438;-59
2023/10/14 13:56:03;;;;;;;166.07;154.63;;;;;;;;;;4916178;29;20433;-60
2023/10/14 13:58:34;;;;;;;148.38;138.20;;;;;;;;;;4924879;29;20459;-59
2023/10/14 14:01:04;;;;;;;234.75;217.00;;;;;;;;;;4926556;29;20432;-60
2023/10/14 14:03:31;;;;;;;298.25;274.45;;;;;;;;;;4926421;29;20444;-59
2023/10/14 14:06:05;;;;;;;125.70;117.35;;;;;;;;;;4927157;29;20495;-59
2023/10/14 14:08:33;;;;;;;426.05;387.13;;;;;;;;;;4917336;29;20844;-59
2023/10/14 14:11:03;;;;;;;854.50;770.58;;;;;;;;;;4911796;29;20445;-60
2023/10/14 14:13:31;;;;;;;813.70;746.83;;;;;;;;;;4928315;29;20443;-59
2023/10/14 14:16:01;;;;;;;840.63;772.85;;;;;;;;;;4925725;29;20443;-59
2023/10/14 14:18:29;;;;;;;679.53;621.58;;;;;;;;;;4928630;29;20446;-59
2023/10/14 14:20:56;;;;;;;552.90;503.23;;;;;;;;;;4919411;29;20478;-59
2023/10/14 14:23:27;;;;;;;515.33;468.30;;;;;;;;;;4926399;29;20957;-59
2023/10/14 14:25:54;;;;;;;441.75;402.95;;;;;;;;;;4917637;29;20441;-59
2023/10/14 14:28:22;;;;;;;301.33;277.50;;;;;;;;;;4907440;29;20496;-59
2023/10/14 14:30:49;;;;;;;330.65;303.88;;;;;;;;;;4923676;29;20453;-59
2023/10/14 14:33:20;;;;;;;160.70;149.40;;;;;;;;;;4921564;29;20451;-60
2023/10/14 14:35:47;;;;;;;207.37;192.07;;;;;;;;;;4919317;29;20449;-59
2023/10/14 14:38:20;;;;;;;329.10;302.95;;;;;;;;;;4918420;29;20469;-59
2023/10/14 14:40:50;;;;;;;368.20;337.23;;;;;;;;;;4910248;29;21126;-59
2023/10/14 14:43:18;;;;;;;637.28;582.72;;;;;;;;;;4923443;29;20447;-60
2023/10/14 14:45:48;;;;;;;949.95;867.83;;;;;;;;;;4924047;29;20926;-59
2023/10/14 14:48:15;;;;;;;588.08;536.20;;;;;;;;;;4928565;29;20435;-59
2023/10/14 14:50:47;;;;;;;478.85;436.63;;;;;;;;;;4921156;29;20848;-59
2023/10/14 14:53:17;;;;;;;429.77;392.85;;;;;;;;;;4927730;29;21210;-60
2023/10/14 14:55:45;;;;;;;422.58;386.60;;;;;;;;;;4910701;29;20443;-60
2023/10/14 14:58:14;;;;;;;478.15;435.90;;;;;;;;;;4927953;29;20460;-60
2023/10/14 15:00:42;;;;;;;546.13;497.83;;;;;;;;;;4920226;29;20944;-59
2023/10/14 15:03:12;;;;;;;434.92;396.90;;;;;;;;;;4929800;29;20431;-59
2023/10/14 15:05:45;;;;;;;540.03;491.45;;;;;;;;;;4923778;29;20446;-59
2023/10/14 15:08:13;;;;;;;240.30;222.43;;;;;;;;;;4924903;29;20912;-59
2023/10/14 15:10:47;;;;;;;138.48;128.60;;;;;;;;;;4927616;29;20526;-59